sensor_id;sensor_type;location;lat;lon;timestamp;temperature;humidity
50969;DHT22;36982;51.474;7.228;2023-05-10T00:01:40;13.60;99.90
50969;DHT22;36982;51.474;7.228;2023-05-10T00:04:06;13.60;99.90
50969;DHT22;36982;51.474;7.228;2023-05-10T00:06:32;13.60;99.90
50969;DHT22;36982;51.474;7.228;2023-05-10T00:08:57;13.60;99.90
50969;DHT22;36982;51.474;7.228;2023-05-10T00:11:23;13.50;99.90
50969;DHT22;36982;51.474;7.228;2023-05-10T00:13:49;13.50;99.90
50969;DHT22;36982;51.474;7.228;2023-05-10T00:16:15;13.50;99.90
50969;DHT22;36982;51.474;7.228;2023-05-10T00:18:40;13.60;99.90
50969;DHT22;36982;51.474;7.228;2023-05-10T00:21:06;13.60;99.90
50969;DHT22;36982;51.474;7.228;2023-05-10T00:23:32;13.50;99.90
50969;DHT22;36982;51.474;7.228;2023-05-10T00:25:57;13.60;99.90
50969;DHT22;36982;51.474;7.228;2023-05-10T00:28:23;13.60;99.90
50969;DHT22;36982;51.474;7.228;2023-05-10T00:30:49;13.60;99.90
50969;DHT22;36982;51.474;7.228;2023-05-10T00:33:15;13.50;99.90
50969;DHT22;36982;51.474;7.228;2023-05-10T00:35:40;13.60;99.90
50969;DHT22;36982;51.474;7.228;2023-05-10T00:38:06;13.60;99.90
50969;DHT22;36982;51.474;7.228;2023-05-10T00:40:32;13.60;99.90
50969;DHT22;36982;51.474;7.228;2023-05-10T00:42:58;13.60;99.90
50969;DHT22;36982;51.474;7.228;2023-05-10T00:45:25;13.60;99.90
50969;DHT22;36982;51.474;7.228;2023-05-10T00:47:52;13.60;99.90
50969;DHT22;36982;51.474;7.228;2023-05-10T00:50:21;13.60;99.90
50969;DHT22;36982;51.474;7.228;2023-05-10T00:52:47;13.60;99.90
50969;DHT22;36982;51.474;7.228;2023-05-10T00:55:13;13.60;99.90
50969;DHT22;36982;51.474;7.228;2023-05-10T00:57:39;13.60;99.90
50969;DHT22;36982;51.474;7.228;2023-05-10T01:00:05;13.60;99.90
50969;DHT22;36982;51.474;7.228;2023-05-10T01:02:33;13.70;99.90
50969;DHT22;36982;51.474;7.228;2023-05-10T01:05:00;13.70;99.90
50969;DHT22;36982;51.474;7.228;2023-05-10T01:07:26;13.80;99.90
50969;DHT22;36982;51.474;7.228;2023-05-10T01:09:52;13.70;99.90
50969;DHT22;36982;51.474;7.228;2023-05-10T01:12:18;13.70;99.90
50969;DHT22;36982;51.474;7.228;2023-05-10T01:14:44;13.80;99.90
50969;DHT22;36982;51.474;7.228;2023-05-10T01:17:10;13.70;99.90
50969;DHT22;36982;51.474;7.228;2023-05-10T01:19:37;13.70;99.90
50969;DHT22;36982;51.474;7.228;2023-05-10T01:30:42;13.80;99.90
50969;DHT22;36982;51.474;7.228;2023-05-10T01:33:26;13.80;99.90
50969;DHT22;36982;51.474;7.228;2023-05-10T01:36:06;13.80;99.90
50969;DHT22;36982;51.474;7.228;2023-05-10T01:42:06;13.60;99.90
50969;DHT22;36982;51.474;7.228;2023-05-10T01:44:37;13.60;99.90
50969;DHT22;36982;51.474;7.228;2023-05-10T01:47:09;13.60;99.90
50969;DHT22;36982;51.474;7.228;2023-05-10T01:49:41;13.60;99.90
50969;DHT22;36982;51.474;7.228;2023-05-10T01:52:12;13.60;99.90
50969;DHT22;36982;51.474;7.228;2023-05-10T01:54:51;13.50;99.90
50969;DHT22;36982;51.474;7.228;2023-05-10T01:57:20;13.50;99.90
50969;DHT22;36982;51.474;7.228;2023-05-10T01:59:49;13.40;99.90
50969;DHT22;36982;51.474;7.228;2023-05-10T02:02:18;13.30;99.90
50969;DHT22;36982;51.474;7.228;2023-05-10T02:04:46;13.30;99.90
50969;DHT22;36982;51.474;7.228;2023-05-10T02:07:14;13.20;99.90
50969;DHT22;36982;51.474;7.228;2023-05-10T02:09:40;13.20;99.90
50969;DHT22;36982;51.474;7.228;2023-05-10T02:12:09;13.20;99.90
50969;DHT22;36982;51.474;7.228;2023-05-10T02:14:37;13.20;99.90
50969;DHT22;36982;51.474;7.228;2023-05-10T02:17:05;13.10;99.90
50969;DHT22;36982;51.474;7.228;2023-05-10T02:19:32;13.20;99.90
50969;DHT22;36982;51.474;7.228;2023-05-10T02:21:59;13.10;99.90
50969;DHT22;36982;51.474;7.228;2023-05-10T02:24:27;13.00;99.90
50969;DHT22;36982;51.474;7.228;2023-05-10T02:26:54;13.00;99.90
50969;DHT22;36982;51.474;7.228;2023-05-10T02:29:24;13.00;99.90
50969;DHT22;36982;51.474;7.228;2023-05-10T02:31:54;13.00;99.90
50969;DHT22;36982;51.474;7.228;2023-05-10T02:34:26;13.00;99.90
50969;DHT22;36982;51.474;7.228;2023-05-10T02:36:53;13.00;99.90
50969;DHT22;36982;51.474;7.228;2023-05-10T02:39:20;13.00;99.90
50969;DHT22;36982;51.474;7.228;2023-05-10T02:41:48;13.00;99.90
50969;DHT22;36982;51.474;7.228;2023-05-10T02:44:15;13.10;99.90
50969;DHT22;36982;51.474;7.228;2023-05-10T02:46:42;13.10;99.90
50969;DHT22;36982;51.474;7.228;2023-05-10T02:49:09;13.00;99.90
50969;DHT22;36982;51.474;7.228;2023-05-10T02:51:37;13.10;99.90
50969;DHT22;36982;51.474;7.228;2023-05-10T02:54:20;13.00;99.90
50969;DHT22;36982;51.474;7.228;2023-05-10T02:56:57;12.90;99.90
50969;DHT22;36982;51.474;7.228;2023-05-10T02:59:24;13.00;99.90
50969;DHT22;36982;51.474;7.228;2023-05-10T03:01:50;13.10;99.90
50969;DHT22;36982;51.474;7.228;2023-05-10T03:04:16;13.10;99.90
50969;DHT22;36982;51.474;7.228;2023-05-10T03:06:41;13.20;99.90
50969;DHT22;36982;51.474;7.228;2023-05-10T03:09:08;13.20;99.90
50969;DHT22;36982;51.474;7.228;2023-05-10T03:11:56;13.20;99.90
50969;DHT22;36982;51.474;7.228;2023-05-10T03:17:20;13.10;99.90
50969;DHT22;36982;51.474;7.228;2023-05-10T03:19:54;13.10;99.90
50969;DHT22;36982;51.474;7.228;2023-05-10T03:22:45;13.20;99.90
50969;DHT22;36982;51.474;7.228;2023-05-10T03:25:12;13.20;99.90
50969;DHT22;36982;51.474;7.228;2023-05-10T03:27:43;13.20;99.90
50969;DHT22;36982;51.474;7.228;2023-05-10T03:30:11;13.30;99.90
50969;DHT22;36982;51.474;7.228;2023-05-10T03:32:37;13.20;99.90
50969;DHT22;36982;51.474;7.228;2023-05-10T03:35:10;13.20;99.90
50969;DHT22;36982;51.474;7.228;2023-05-10T03:37:37;13.10;99.90
50969;DHT22;36982;51.474;7.228;2023-05-10T03:40:03;13.20;99.90
50969;DHT22;36982;51.474;7.228;2023-05-10T03:42:29;13.10;99.90
50969;DHT22;36982;51.474;7.228;2023-05-10T03:44:55;13.10;99.90
50969;DHT22;36982;51.474;7.228;2023-05-10T03:47:20;13.00;99.90
50969;DHT22;36982;51.474;7.228;2023-05-10T03:49:46;13.10;99.90
50969;DHT22;36982;51.474;7.228;2023-05-10T03:52:12;13.10;99.90
50969;DHT22;36982;51.474;7.228;2023-05-10T03:54:37;13.20;99.90
50969;DHT22;36982;51.474;7.228;2023-05-10T03:57:03;13.20;99.90
50969;DHT22;36982;51.474;7.228;2023-05-10T03:59:30;13.30;99.90
50969;DHT22;36982;51.474;7.228;2023-05-10T04:01:55;13.30;99.90
50969;DHT22;36982;51.474;7.228;2023-05-10T04:04:21;13.20;99.90
50969;DHT22;36982;51.474;7.228;2023-05-10T04:06:48;13.00;99.90
50969;DHT22;36982;51.474;7.228;2023-05-10T04:09:14;13.10;99.90
50969;DHT22;36982;51.474;7.228;2023-05-10T04:11:41;13.00;99.90
50969;DHT22;36982;51.474;7.228;2023-05-10T04:14:07;13.00;99.90
50969;DHT22;36982;51.474;7.228;2023-05-10T04:16:32;13.00;99.90
50969;DHT22;36982;51.474;7.228;2023-05-10T04:18:58;13.10;99.90
50969;DHT22;36982;51.474;7.228;2023-05-10T04:21:25;13.10;99.90
50969;DHT22;36982;51.474;7.228;2023-05-10T04:23:50;13.00;99.90
50969;DHT22;36982;51.474;7.228;2023-05-10T04:26:16;13.00;99.90
50969;DHT22;36982;51.474;7.228;2023-05-10T04:28:42;13.00;99.90
50969;DHT22;36982;51.474;7.228;2023-05-10T04:31:09;13.10;99.90
50969;DHT22;36982;51.474;7.228;2023-05-10T04:33:35;13.10;99.90
50969;DHT22;36982;51.474;7.228;2023-05-10T04:36:01;13.20;99.90
50969;DHT22;36982;51.474;7.228;2023-05-10T04:38:27;13.10;99.90
50969;DHT22;36982;51.474;7.228;2023-05-10T04:40:53;13.20;99.90
50969;DHT22;36982;51.474;7.228;2023-05-10T04:43:19;13.30;99.90
50969;DHT22;36982;51.474;7.228;2023-05-10T04:45:45;13.30;99.90
50969;DHT22;36982;51.474;7.228;2023-05-10T04:48:11;13.20;99.90
50969;DHT22;36982;51.474;7.228;2023-05-10T04:50:38;13.10;99.90
50969;DHT22;36982;51.474;7.228;2023-05-10T04:53:04;13.10;99.90
50969;DHT22;36982;51.474;7.228;2023-05-10T04:55:30;13.10;99.90
50969;DHT22;36982;51.474;7.228;2023-05-10T04:57:55;13.30;99.90
50969;DHT22;36982;51.474;7.228;2023-05-10T05:00:23;13.30;99.90
50969;DHT22;36982;51.474;7.228;2023-05-10T05:02:48;13.20;99.90
50969;DHT22;36982;51.474;7.228;2023-05-10T05:05:14;13.30;99.90
50969;DHT22;36982;51.474;7.228;2023-05-10T05:07:40;13.30;99.90
50969;DHT22;36982;51.474;7.228;2023-05-10T05:10:07;13.30;99.90
50969;DHT22;36982;51.474;7.228;2023-05-10T05:12:33;13.30;99.90
50969;DHT22;36982;51.474;7.228;2023-05-10T05:14:58;13.20;99.90
50969;DHT22;36982;51.474;7.228;2023-05-10T05:17:24;13.20;99.90
50969;DHT22;36982;51.474;7.228;2023-05-10T05:19:49;13.30;99.90
50969;DHT22;36982;51.474;7.228;2023-05-10T05:22:15;13.40;99.90
50969;DHT22;36982;51.474;7.228;2023-05-10T05:24:41;13.40;99.90
50969;DHT22;36982;51.474;7.228;2023-05-10T05:27:06;13.30;99.90
50969;DHT22;36982;51.474;7.228;2023-05-10T05:29:32;13.20;99.90
50969;DHT22;36982;51.474;7.228;2023-05-10T05:31:58;13.30;99.90
50969;DHT22;36982;51.474;7.228;2023-05-10T05:34:24;13.40;99.90
50969;DHT22;36982;51.474;7.228;2023-05-10T05:36:50;13.40;99.90
50969;DHT22;36982;51.474;7.228;2023-05-10T05:39:15;13.50;99.90
50969;DHT22;36982;51.474;7.228;2023-05-10T05:41:41;13.50;99.90
50969;DHT22;36982;51.474;7.228;2023-05-10T05:44:07;13.50;99.90
50969;DHT22;36982;51.474;7.228;2023-05-10T05:46:33;13.50;99.90
50969;DHT22;36982;51.474;7.228;2023-05-10T05:48:59;13.50;99.90
50969;DHT22;36982;51.474;7.228;2023-05-10T05:51:24;13.70;99.90
50969;DHT22;36982;51.474;7.228;2023-05-10T05:53:50;13.80;99.90
50969;DHT22;36982;51.474;7.228;2023-05-10T05:56:16;13.90;99.90
50969;DHT22;36982;51.474;7.228;2023-05-10T05:58:52;14.00;99.90
50969;DHT22;36982;51.474;7.228;2023-05-10T06:01:17;14.00;99.90
50969;DHT22;36982;51.474;7.228;2023-05-10T06:03:43;14.00;99.90
50969;DHT22;36982;51.474;7.228;2023-05-10T06:06:09;13.90;99.90
50969;DHT22;36982;51.474;7.228;2023-05-10T06:08:34;13.80;99.90
50969;DHT22;36982;51.474;7.228;2023-05-10T06:11:00;13.80;99.90
50969;DHT22;36982;51.474;7.228;2023-05-10T06:13:26;13.80;99.90
50969;DHT22;36982;51.474;7.228;2023-05-10T06:15:58;13.80;99.90
50969;DHT22;36982;51.474;7.228;2023-05-10T06:18:24;13.70;99.90
50969;DHT22;36982;51.474;7.228;2023-05-10T06:20:50;13.70;99.90
50969;DHT22;36982;51.474;7.228;2023-05-10T06:23:15;13.70;99.90
50969;DHT22;36982;51.474;7.228;2023-05-10T06:25:41;13.80;99.90
50969;DHT22;36982;51.474;7.228;2023-05-10T06:28:07;13.80;99.90
50969;DHT22;36982;51.474;7.228;2023-05-10T06:30:32;13.70;99.90
50969;DHT22;36982;51.474;7.228;2023-05-10T06:32:58;13.80;99.90
50969;DHT22;36982;51.474;7.228;2023-05-10T06:35:24;14.00;99.90
50969;DHT22;36982;51.474;7.228;2023-05-10T06:37:50;14.00;99.90
50969;DHT22;36982;51.474;7.228;2023-05-10T06:40:17;14.10;99.90
50969;DHT22;36982;51.474;7.228;2023-05-10T06:42:42;14.20;99.90
50969;DHT22;36982;51.474;7.228;2023-05-10T06:45:10;14.40;99.90
50969;DHT22;36982;51.474;7.228;2023-05-10T06:47:36;14.50;99.90
50969;DHT22;36982;51.474;7.228;2023-05-10T06:50:01;14.50;99.90
50969;DHT22;36982;51.474;7.228;2023-05-10T06:52:27;14.50;99.90
50969;DHT22;36982;51.474;7.228;2023-05-10T06:54:53;14.50;99.90
50969;DHT22;36982;51.474;7.228;2023-05-10T06:57:19;14.40;99.90
50969;DHT22;36982;51.474;7.228;2023-05-10T06:59:46;14.40;99.90
50969;DHT22;36982;51.474;7.228;2023-05-10T07:02:11;14.50;99.90
50969;DHT22;36982;51.474;7.228;2023-05-10T07:04:37;14.60;99.90
50969;DHT22;36982;51.474;7.228;2023-05-10T07:07:03;14.80;99.90
50969;DHT22;36982;51.474;7.228;2023-05-10T07:09:28;14.90;99.90
50969;DHT22;36982;51.474;7.228;2023-05-10T07:11:55;14.70;99.90
50969;DHT22;36982;51.474;7.228;2023-05-10T07:14:22;15.00;99.90
50969;DHT22;36982;51.474;7.228;2023-05-10T07:16:48;15.00;99.90
50969;DHT22;36982;51.474;7.228;2023-05-10T07:19:14;14.80;99.90
50969;DHT22;36982;51.474;7.228;2023-05-10T07:21:40;14.80;99.90
50969;DHT22;36982;51.474;7.228;2023-05-10T07:24:08;14.90;99.90
50969;DHT22;36982;51.474;7.228;2023-05-10T07:26:34;14.70;99.90
50969;DHT22;36982;51.474;7.228;2023-05-10T07:29:00;14.70;99.90
50969;DHT22;36982;51.474;7.228;2023-05-10T07:31:26;14.80;99.90
50969;DHT22;36982;51.474;7.228;2023-05-10T07:33:52;14.90;99.90
50969;DHT22;36982;51.474;7.228;2023-05-10T07:36:17;15.00;99.90
50969;DHT22;36982;51.474;7.228;2023-05-10T07:38:43;15.10;99.90
50969;DHT22;36982;51.474;7.228;2023-05-10T07:41:09;15.30;99.90
50969;DHT22;36982;51.474;7.228;2023-05-10T07:43:35;15.20;99.90
50969;DHT22;36982;51.474;7.228;2023-05-10T07:46:00;15.30;99.90
50969;DHT22;36982;51.474;7.228;2023-05-10T07:48:26;15.40;99.90
50969;DHT22;36982;51.474;7.228;2023-05-10T07:50:52;15.60;99.90
50969;DHT22;36982;51.474;7.228;2023-05-10T07:53:17;15.90;99.90
50969;DHT22;36982;51.474;7.228;2023-05-10T07:55:44;15.90;97.80
50969;DHT22;36982;51.474;7.228;2023-05-10T07:58:10;15.70;99.70
50969;DHT22;36982;51.474;7.228;2023-05-10T08:00:36;15.40;99.60
50969;DHT22;36982;51.474;7.228;2023-05-10T08:03:04;15.50;98.80
50969;DHT22;36982;51.474;7.228;2023-05-10T08:05:30;15.60;98.90
50969;DHT22;36982;51.474;7.228;2023-05-10T08:07:56;15.50;99.10
50969;DHT22;36982;51.474;7.228;2023-05-10T08:10:22;15.60;99.70
50969;DHT22;36982;51.474;7.228;2023-05-10T08:12:47;15.60;99.50
50969;DHT22;36982;51.474;7.228;2023-05-10T08:15:13;15.60;98.90
50969;DHT22;36982;51.474;7.228;2023-05-10T08:17:38;15.50;99.70
50969;DHT22;36982;51.474;7.228;2023-05-10T08:20:05;15.50;99.90
50969;DHT22;36982;51.474;7.228;2023-05-10T08:22:30;15.60;99.90
50969;DHT22;36982;51.474;7.228;2023-05-10T08:24:58;15.50;99.20
50969;DHT22;36982;51.474;7.228;2023-05-10T08:27:24;15.40;99.30
50969;DHT22;36982;51.474;7.228;2023-05-10T08:29:49;15.30;99.70
50969;DHT22;36982;51.474;7.228;2023-05-10T08:32:15;15.30;98.90
50969;DHT22;36982;51.474;7.228;2023-05-10T08:34:41;15.40;99.70
50969;DHT22;36982;51.474;7.228;2023-05-10T08:37:06;15.50;99.50
50969;DHT22;36982;51.474;7.228;2023-05-10T08:39:35;15.50;98.60
50969;DHT22;36982;51.474;7.228;2023-05-10T08:42:03;15.50;99.30
50969;DHT22;36982;51.474;7.228;2023-05-10T08:44:32;15.80;98.70
50969;DHT22;36982;51.474;7.228;2023-05-10T08:46:59;15.90;97.70
50969;DHT22;36982;51.474;7.228;2023-05-10T08:49:31;16.10;97.50
50969;DHT22;36982;51.474;7.228;2023-05-10T08:51:57;16.40;97.00
50969;DHT22;36982;51.474;7.228;2023-05-10T08:54:25;16.30;95.90
50969;DHT22;36982;51.474;7.228;2023-05-10T08:56:51;16.40;95.10
50969;DHT22;36982;51.474;7.228;2023-05-10T08:59:17;16.40;94.00
50969;DHT22;36982;51.474;7.228;2023-05-10T09:01:45;16.10;95.40
50969;DHT22;36982;51.474;7.228;2023-05-10T09:04:13;16.10;96.50
50969;DHT22;36982;51.474;7.228;2023-05-10T09:06:38;16.10;95.20
50969;DHT22;36982;51.474;7.228;2023-05-10T09:09:05;16.10;93.70
50969;DHT22;36982;51.474;7.228;2023-05-10T09:11:30;16.00;93.80
50969;DHT22;36982;51.474;7.228;2023-05-10T09:13:56;15.90;95.00
50969;DHT22;36982;51.474;7.228;2023-05-10T09:16:23;15.70;95.90
50969;DHT22;36982;51.474;7.228;2023-05-10T09:18:49;15.70;97.30
50969;DHT22;36982;51.474;7.228;2023-05-10T09:21:15;15.80;97.70
50969;DHT22;36982;51.474;7.228;2023-05-10T09:23:45;16.10;97.60
50969;DHT22;36982;51.474;7.228;2023-05-10T09:26:12;16.30;95.00
50969;DHT22;36982;51.474;7.228;2023-05-10T09:28:55;16.60;95.60
50969;DHT22;36982;51.474;7.228;2023-05-10T09:31:21;16.30;94.00
50969;DHT22;36982;51.474;7.228;2023-05-10T09:33:48;16.20;95.60
50969;DHT22;36982;51.474;7.228;2023-05-10T09:36:14;16.50;94.50
50969;DHT22;36982;51.474;7.228;2023-05-10T09:38:51;16.70;93.00
50969;DHT22;36982;51.474;7.228;2023-05-10T09:41:27;16.80;89.00
50969;DHT22;36982;51.474;7.228;2023-05-10T09:43:55;17.00;90.60
50969;DHT22;36982;51.474;7.228;2023-05-10T09:46:22;17.30;89.90
50969;DHT22;36982;51.474;7.228;2023-05-10T09:48:51;17.00;86.20
50969;DHT22;36982;51.474;7.228;2023-05-10T09:51:21;16.60;92.40
50969;DHT22;36982;51.474;7.228;2023-05-10T09:53:47;16.70;93.80
50969;DHT22;36982;51.474;7.228;2023-05-10T09:56:33;16.70;91.80
50969;DHT22;36982;51.474;7.228;2023-05-10T09:59:03;16.50;91.60
50969;DHT22;36982;51.474;7.228;2023-05-10T10:01:30;16.30;92.30
50969;DHT22;36982;51.474;7.228;2023-05-10T10:03:56;16.20;92.20
50969;DHT22;36982;51.474;7.228;2023-05-10T10:06:25;16.20;92.60
50969;DHT22;36982;51.474;7.228;2023-05-10T10:08:52;16.20;94.40
50969;DHT22;36982;51.474;7.228;2023-05-10T10:11:19;16.30;94.50
50969;DHT22;36982;51.474;7.228;2023-05-10T10:13:45;16.60;94.80
50969;DHT22;36982;51.474;7.228;2023-05-10T10:16:11;17.00;90.70
50969;DHT22;36982;51.474;7.228;2023-05-10T10:18:37;17.10;90.40
50969;DHT22;36982;51.474;7.228;2023-05-10T10:21:07;17.10;84.60
50969;DHT22;36982;51.474;7.228;2023-05-10T10:23:34;17.00;85.40
50969;DHT22;36982;51.474;7.228;2023-05-10T10:26:04;16.80;88.20
50969;DHT22;36982;51.474;7.228;2023-05-10T10:31:24;16.70;89.80
50969;DHT22;36982;51.474;7.228;2023-05-10T10:34:00;16.90;83.60
50969;DHT22;36982;51.474;7.228;2023-05-10T10:36:27;16.90;76.00
50969;DHT22;36982;51.474;7.228;2023-05-10T10:39:00;16.90;79.70
50969;DHT22;36982;51.474;7.228;2023-05-10T10:41:35;17.20;74.40
50969;DHT22;36982;51.474;7.228;2023-05-10T10:47:02;17.40;9.80
50969;DHT22;36982;51.474;7.228;2023-05-10T10:49:30;17.50;1.00
50969;DHT22;36982;51.474;7.228;2023-05-10T10:52:20;17.40;1.00
50969;DHT22;36982;51.474;7.228;2023-05-10T10:54:51;17.60;14.60
50969;DHT22;36982;51.474;7.228;2023-05-10T10:57:19;18.10;1.00
50969;DHT22;36982;51.474;7.228;2023-05-10T10:59:47;18.30;1.00
50969;DHT22;36982;51.474;7.228;2023-05-10T11:02:50;17.80;1.00
50969;DHT22;36982;51.474;7.228;2023-05-10T11:10:48;16.70;7.10
50969;DHT22;36982;51.474;7.228;2023-05-10T11:13:14;16.50;17.30
50969;DHT22;36982;51.474;7.228;2023-05-10T11:15:43;16.40;17.30
50969;DHT22;36982;51.474;7.228;2023-05-10T11:18:27;16.30;28.10
50969;DHT22;36982;51.474;7.228;2023-05-10T11:21:02;16.30;37.90
50969;DHT22;36982;51.474;7.228;2023-05-10T11:23:49;16.60;42.60
50969;DHT22;36982;51.474;7.228;2023-05-10T11:26:15;16.80;22.80
50969;DHT22;36982;51.474;7.228;2023-05-10T11:28:45;16.70;8.20
50969;DHT22;36982;51.474;7.228;2023-05-10T11:31:13;16.70;18.80
50969;DHT22;36982;51.474;7.228;2023-05-10T11:33:50;16.40;17.10
50969;DHT22;36982;51.474;7.228;2023-05-10T11:36:26;16.60;10.60
50969;DHT22;36982;51.474;7.228;2023-05-10T11:38:53;16.70;5.50
50969;DHT22;36982;51.474;7.228;2023-05-10T11:41:20;16.80;30.30
50969;DHT22;36982;51.474;7.228;2023-05-10T11:43:49;17.10;1.00
50969;DHT22;36982;51.474;7.228;2023-05-10T11:46:17;17.10;1.00
50969;DHT22;36982;51.474;7.228;2023-05-10T11:48:45;17.10;1.00
50969;DHT22;36982;51.474;7.228;2023-05-10T11:51:11;17.10;1.00
50969;DHT22;36982;51.474;7.228;2023-05-10T11:53:36;17.10;1.00
50969;DHT22;36982;51.474;7.228;2023-05-10T11:56:08;17.00;1.00
50969;DHT22;36982;51.474;7.228;2023-05-10T11:58:35;17.10;1.00
50969;DHT22;36982;51.474;7.228;2023-05-10T12:01:01;17.20;1.00
50969;DHT22;36982;51.474;7.228;2023-05-10T12:03:28;17.20;1.00
50969;DHT22;36982;51.474;7.228;2023-05-10T12:05:54;17.20;1.00
50969;DHT22;36982;51.474;7.228;2023-05-10T12:08:24;17.30;1.00
50969;DHT22;36982;51.474;7.228;2023-05-10T12:10:50;17.30;1.00
50969;DHT22;36982;51.474;7.228;2023-05-10T12:13:17;17.40;1.00
50969;DHT22;36982;51.474;7.228;2023-05-10T12:15:44;17.30;1.00
50969;DHT22;36982;51.474;7.228;2023-05-10T12:18:10;17.20;1.00
50969;DHT22;36982;51.474;7.228;2023-05-10T12:20:37;17.10;1.00
50969;DHT22;36982;51.474;7.228;2023-05-10T12:23:03;17.10;1.00
50969;DHT22;36982;51.474;7.228;2023-05-10T12:25:37;17.30;1.00
50969;DHT22;36982;51.474;7.228;2023-05-10T12:28:04;17.40;1.00
50969;DHT22;36982;51.474;7.228;2023-05-10T12:30:32;17.50;1.00
50969;DHT22;36982;51.474;7.228;2023-05-10T12:33:07;17.30;1.00
50969;DHT22;36982;51.474;7.228;2023-05-10T12:35:38;17.30;4.80
50969;DHT22;36982;51.474;7.228;2023-05-10T12:38:28;17.40;1.00
50969;DHT22;36982;51.474;7.228;2023-05-10T12:41:06;17.60;1.00
50969;DHT22;36982;51.474;7.228;2023-05-10T12:43:32;17.80;1.00
50969;DHT22;36982;51.474;7.228;2023-05-10T12:46:04;17.80;1.00
50969;DHT22;36982;51.474;7.228;2023-05-10T12:48:29;17.80;1.00
50969;DHT22;36982;51.474;7.228;2023-05-10T12:50:56;17.70;1.00
50969;DHT22;36982;51.474;7.228;2023-05-10T12:53:22;17.70;1.00
50969;DHT22;36982;51.474;7.228;2023-05-10T12:55:48;18.00;1.00
50969;DHT22;36982;51.474;7.228;2023-05-10T12:58:14;18.00;1.00
50969;DHT22;36982;51.474;7.228;2023-05-10T13:00:39;18.20;1.00
50969;DHT22;36982;51.474;7.228;2023-05-10T13:03:05;17.90;1.00
50969;DHT22;36982;51.474;7.228;2023-05-10T13:05:34;17.80;1.00
50969;DHT22;36982;51.474;7.228;2023-05-10T13:07:59;17.80;1.00
50969;DHT22;36982;51.474;7.228;2023-05-10T13:10:25;17.90;1.00
50969;DHT22;36982;51.474;7.228;2023-05-10T13:12:51;17.90;1.00
50969;DHT22;36982;51.474;7.228;2023-05-10T13:15:17;18.00;1.00
50969;DHT22;36982;51.474;7.228;2023-05-10T13:17:43;17.80;1.00
50969;DHT22;36982;51.474;7.228;2023-05-10T13:20:09;17.80;1.00
50969;DHT22;36982;51.474;7.228;2023-05-10T13:22:35;17.90;1.00
50969;DHT22;36982;51.474;7.228;2023-05-10T13:25:01;18.10;1.00
50969;DHT22;36982;51.474;7.228;2023-05-10T13:27:27;18.20;1.00
50969;DHT22;36982;51.474;7.228;2023-05-10T13:29:53;18.00;1.00
50969;DHT22;36982;51.474;7.228;2023-05-10T13:32:18;17.90;1.00
50969;DHT22;36982;51.474;7.228;2023-05-10T13:34:44;17.90;1.00
50969;DHT22;36982;51.474;7.228;2023-05-10T13:37:10;18.00;1.00
50969;DHT22;36982;51.474;7.228;2023-05-10T13:39:35;18.20;1.00
50969;DHT22;36982;51.474;7.228;2023-05-10T13:42:03;18.30;1.00
50969;DHT22;36982;51.474;7.228;2023-05-10T13:44:29;18.60;99.90
50969;DHT22;36982;51.474;7.228;2023-05-10T13:46:56;18.60;99.90
50969;DHT22;36982;51.474;7.228;2023-05-10T13:49:21;18.50;99.90
50969;DHT22;36982;51.474;7.228;2023-05-10T13:51:47;18.50;99.90
50969;DHT22;36982;51.474;7.228;2023-05-10T13:54:13;18.40;99.90
50969;DHT22;36982;51.474;7.228;2023-05-10T13:56:40;18.40;99.90
50969;DHT22;36982;51.474;7.228;2023-05-10T13:59:06;18.30;99.90
50969;DHT22;36982;51.474;7.228;2023-05-10T14:01:33;18.40;99.90
50969;DHT22;36982;51.474;7.228;2023-05-10T14:03:59;18.40;99.90
50969;DHT22;36982;51.474;7.228;2023-05-10T14:06:25;18.30;99.90
50969;DHT22;36982;51.474;7.228;2023-05-10T14:08:52;18.50;99.90
50969;DHT22;36982;51.474;7.228;2023-05-10T14:11:19;18.60;99.90
50969;DHT22;36982;51.474;7.228;2023-05-10T14:13:45;18.60;99.90
50969;DHT22;36982;51.474;7.228;2023-05-10T14:16:10;18.50;99.90
50969;DHT22;36982;51.474;7.228;2023-05-10T14:18:37;18.60;99.90
50969;DHT22;36982;51.474;7.228;2023-05-10T14:21:03;18.60;99.90
50969;DHT22;36982;51.474;7.228;2023-05-10T14:23:29;18.60;99.90
50969;DHT22;36982;51.474;7.228;2023-05-10T14:25:55;18.80;99.90
50969;DHT22;36982;51.474;7.228;2023-05-10T14:28:21;18.80;99.90
50969;DHT22;36982;51.474;7.228;2023-05-10T14:30:47;18.80;99.90
50969;DHT22;36982;51.474;7.228;2023-05-10T14:33:13;18.90;99.90
50969;DHT22;36982;51.474;7.228;2023-05-10T14:35:40;18.80;99.90
50969;DHT22;36982;51.474;7.228;2023-05-10T14:38:06;18.60;99.90
50969;DHT22;36982;51.474;7.228;2023-05-10T14:40:32;18.70;99.90
50969;DHT22;36982;51.474;7.228;2023-05-10T14:42:57;18.90;99.90
50969;DHT22;36982;51.474;7.228;2023-05-10T14:45:23;19.00;99.90
50969;DHT22;36982;51.474;7.228;2023-05-10T14:47:49;19.10;99.90
50969;DHT22;36982;51.474;7.228;2023-05-10T14:50:15;19.30;99.90
50969;DHT22;36982;51.474;7.228;2023-05-10T14:52:43;19.30;99.90
50969;DHT22;36982;51.474;7.228;2023-05-10T14:55:09;19.10;99.90
50969;DHT22;36982;51.474;7.228;2023-05-10T14:57:35;19.00;99.90
50969;DHT22;36982;51.474;7.228;2023-05-10T15:00:02;19.00;23.00
50969;DHT22;36982;51.474;7.228;2023-05-10T15:02:29;19.00;28.20
50969;DHT22;36982;51.474;7.228;2023-05-10T15:04:54;19.20;33.90
50969;DHT22;36982;51.474;7.228;2023-05-10T15:07:27;19.10;25.00
50969;DHT22;36982;51.474;7.228;2023-05-10T15:09:53;19.10;1.00
50969;DHT22;36982;51.474;7.228;2023-05-10T15:12:19;19.10;18.60
50969;DHT22;36982;51.474;7.228;2023-05-10T15:14:46;18.70;50.30
50969;DHT22;36982;51.474;7.228;2023-05-10T15:17:12;18.50;99.90
50969;DHT22;36982;51.474;7.228;2023-05-10T15:19:38;18.60;99.90
50969;DHT22;36982;51.474;7.228;2023-05-10T15:22:04;18.70;81.00
50969;DHT22;36982;51.474;7.228;2023-05-10T15:24:31;18.80;98.00
50969;DHT22;36982;51.474;7.228;2023-05-10T15:26:57;18.90;49.20
50969;DHT22;36982;51.474;7.228;2023-05-10T15:29:22;19.00;93.90
50969;DHT22;36982;51.474;7.228;2023-05-10T15:31:49;19.20;90.60
50969;DHT22;36982;51.474;7.228;2023-05-10T15:34:16;19.40;68.30
50969;DHT22;36982;51.474;7.228;2023-05-10T15:36:41;19.40;1.10
50969;DHT22;36982;51.474;7.228;2023-05-10T15:39:07;19.40;1.00
50969;DHT22;36982;51.474;7.228;2023-05-10T15:41:34;19.30;1.00
50969;DHT22;36982;51.474;7.228;2023-05-10T15:44:00;19.10;1.00
50969;DHT22;36982;51.474;7.228;2023-05-10T15:46:27;19.10;13.20
50969;DHT22;36982;51.474;7.228;2023-05-10T15:48:53;18.90;83.20
50969;DHT22;36982;51.474;7.228;2023-05-10T15:51:18;18.90;99.90
50969;DHT22;36982;51.474;7.228;2023-05-10T15:53:44;19.00;99.90
50969;DHT22;36982;51.474;7.228;2023-05-10T15:56:10;19.10;99.90
50969;DHT22;36982;51.474;7.228;2023-05-10T15:58:37;18.90;99.90
50969;DHT22;36982;51.474;7.228;2023-05-10T16:01:03;18.90;99.90